sensor_id;sensor_type;location;lat;lon;timestamp;pressure;altitude;pressure_sealevel;temperature;humidity
55038;BME280;40937;53.594;10.034;2022-07-29T00:01:14;78270.38;;;-147.20;50.15
55038;BME280;40937;53.594;10.034;2022-07-29T00:03:41;78276.41;;;-147.20;50.33
55038;BME280;40937;53.594;10.034;2022-07-29T00:06:08;78270.38;;;-147.20;50.29
55038;BME280;40937;53.594;10.034;2022-07-29T00:08:35;78276.41;;;-147.20;50.12
55038;BME280;40937;53.594;10.034;2022-07-29T00:11:03;78274.41;;;-147.20;50.17
55038;BME280;40937;53.594;10.034;2022-07-29T00:13:30;78278.44;;;-147.20;50.32
55038;BME280;40937;53.594;10.034;2022-07-29T00:15:56;78294.59;;;-147.20;50.72
55038;BME280;40937;53.594;10.034;2022-07-29T00:18:23;78290.56;;;-147.20;50.82
55038;BME280;40937;53.594;10.034;2022-07-29T00:20:50;78288.53;;;-147.20;50.45
55038;BME280;40937;53.594;10.034;2022-07-29T00:23:16;78292.56;;;-147.20;50.49
55038;BME280;40937;53.594;10.034;2022-07-29T00:25:43;78284.50;;;-147.20;50.47
55038;BME280;40937;53.594;10.034;2022-07-29T00:28:11;78272.38;;;-147.20;49.94
55038;BME280;40937;53.594;10.034;2022-07-29T00:30:37;78270.38;;;-147.20;49.84
55038;BME280;40937;53.594;10.034;2022-07-29T00:33:05;78288.53;;;-147.20;50.33
55038;BME280;40937;53.594;10.034;2022-07-29T00:35:31;78294.59;;;-147.20;50.45
55038;BME280;40937;53.594;10.034;2022-07-29T00:38:09;78278.44;;;-147.20;50.19
55038;BME280;40937;53.594;10.034;2022-07-29T00:40:36;78274.41;;;-147.20;50.22
55038;BME280;40937;53.594;10.034;2022-07-29T00:43:02;78286.50;;;-147.20;50.22
55038;BME280;40937;53.594;10.034;2022-07-29T00:45:30;78290.56;;;-147.20;50.07
55038;BME280;40937;53.594;10.034;2022-07-29T00:47:57;78292.56;;;-147.20;50.39
55038;BME280;40937;53.594;10.034;2022-07-29T00:50:24;78288.53;;;-147.20;50.20
55038;BME280;40937;53.594;10.034;2022-07-29T00:52:52;78280.47;;;-147.20;49.78
55038;BME280;40937;53.594;10.034;2022-07-29T00:55:19;78288.53;;;-147.20;49.86
55038;BME280;40937;53.594;10.034;2022-07-29T00:57:46;78280.47;;;-147.20;49.82
55038;BME280;40937;53.594;10.034;2022-07-29T01:00:16;78302.66;;;-147.20;50.54
55038;BME280;40937;53.594;10.034;2022-07-29T01:02:45;78292.56;;;-147.20;50.18
55038;BME280;40937;53.594;10.034;2022-07-29T01:05:14;78292.56;;;-147.20;49.92
55038;BME280;40937;53.594;10.034;2022-07-29T01:07:41;78306.72;;;-147.20;50.39
55038;BME280;40937;53.594;10.034;2022-07-29T01:10:09;78306.72;;;-147.20;50.33
55038;BME280;40937;53.594;10.034;2022-07-29T01:12:37;78300.66;;;-147.20;50.31
55038;BME280;40937;53.594;10.034;2022-07-29T01:15:06;78290.56;;;-147.20;50.15
55038;BME280;40937;53.594;10.034;2022-07-29T01:17:38;78292.56;;;-147.20;49.94
55038;BME280;40937;53.594;10.034;2022-07-29T01:20:12;78290.56;;;-147.20;49.89
55038;BME280;40937;53.594;10.034;2022-07-29T01:23:11;78290.56;;;-147.20;49.78
55038;BME280;40937;53.594;10.034;2022-07-29T01:25:53;78288.53;;;-147.20;49.95
55038;BME280;40937;53.594;10.034;2022-07-29T01:28:47;78290.56;;;-147.20;49.79
55038;BME280;40937;53.594;10.034;2022-07-29T01:31:18;78290.56;;;-147.20;49.91
55038;BME280;40937;53.594;10.034;2022-07-29T01:33:51;78302.66;;;-147.20;49.89
55038;BME280;40937;53.594;10.034;2022-07-29T01:36:25;78298.63;;;-147.20;50.07
55038;BME280;40937;53.594;10.034;2022-07-29T01:38:59;78292.56;;;-147.20;50.04
55038;BME280;40937;53.594;10.034;2022-07-29T01:41:31;78292.56;;;-147.20;50.21
55038;BME280;40937;53.594;10.034;2022-07-29T01:44:02;78294.59;;;-147.20;49.99
55038;BME280;40937;53.594;10.034;2022-07-29T01:46:38;78292.56;;;-147.20;50.02
55038;BME280;40937;53.594;10.034;2022-07-29T01:49:10;78294.59;;;-147.20;50.22
55038;BME280;40937;53.594;10.034;2022-07-29T01:51:43;78282.47;;;-147.20;50.09
55038;BME280;40937;53.594;10.034;2022-07-29T01:54:16;78286.50;;;-147.20;50.24
55038;BME280;40937;53.594;10.034;2022-07-29T01:56:47;78274.41;;;-147.20;50.37
55038;BME280;40937;53.594;10.034;2022-07-29T01:59:17;78278.44;;;-147.20;50.35
55038;BME280;40937;53.594;10.034;2022-07-29T02:01:46;78270.38;;;-147.20;50.10
55038;BME280;40937;53.594;10.034;2022-07-29T02:04:15;78274.41;;;-147.20;50.36
55038;BME280;40937;53.594;10.034;2022-07-29T02:06:44;78264.31;;;-147.20;50.61
55038;BME280;40937;53.594;10.034;2022-07-29T02:09:13;78278.44;;;-147.20;50.68
55038;BME280;40937;53.594;10.034;2022-07-29T02:11:45;78268.34;;;-147.20;50.64
55038;BME280;40937;53.594;10.034;2022-07-29T02:14:14;78274.41;;;-147.20;51.14
55038;BME280;40937;53.594;10.034;2022-07-29T02:16:44;78268.34;;;-147.20;50.60
55038;BME280;40937;53.594;10.034;2022-07-29T02:19:12;78272.38;;;-147.20;50.64
55038;BME280;40937;53.594;10.034;2022-07-29T02:21:40;78270.38;;;-147.20;50.73
55038;BME280;40937;53.594;10.034;2022-07-29T02:24:09;78268.34;;;-147.20;50.66
55038;BME280;40937;53.594;10.034;2022-07-29T02:26:38;78276.41;;;-147.20;50.93
55038;BME280;40937;53.594;10.034;2022-07-29T02:29:06;78270.38;;;-147.20;51.12
55038;BME280;40937;53.594;10.034;2022-07-29T02:31:36;78272.38;;;-147.20;50.96
55038;BME280;40937;53.594;10.034;2022-07-29T02:34:08;78284.50;;;-147.20;51.53
55038;BME280;40937;53.594;10.034;2022-07-29T02:36:36;78286.50;;;-147.20;51.41
55038;BME280;40937;53.594;10.034;2022-07-29T02:39:03;78282.47;;;-147.20;51.29
55038;BME280;40937;53.594;10.034;2022-07-29T02:41:37;78280.47;;;-147.20;51.42
55038;BME280;40937;53.594;10.034;2022-07-29T02:44:09;78286.50;;;-147.20;51.64
55038;BME280;40937;53.594;10.034;2022-07-29T02:46:42;78276.41;;;-147.20;51.29
55038;BME280;40937;53.594;10.034;2022-07-29T02:49:15;78274.41;;;-147.20;51.41
55038;BME280;40937;53.594;10.034;2022-07-29T02:51:43;78274.41;;;-147.20;51.41
55038;BME280;40937;53.594;10.034;2022-07-29T02:54:20;78272.38;;;-147.20;51.68
55038;BME280;40937;53.594;10.034;2022-07-29T02:56:48;78284.50;;;-147.20;51.96
55038;BME280;40937;53.594;10.034;2022-07-29T02:59:20;78288.53;;;-147.20;51.97
55038;BME280;40937;53.594;10.034;2022-07-29T03:01:49;78284.50;;;-147.20;51.99
55038;BME280;40937;53.594;10.034;2022-07-29T03:04:18;78288.53;;;-147.20;51.88
55038;BME280;40937;53.594;10.034;2022-07-29T03:06:46;78286.50;;;-147.20;52.09
55038;BME280;40937;53.594;10.034;2022-07-29T03:09:14;78274.41;;;-147.20;51.67
55038;BME280;40937;53.594;10.034;2022-07-29T03:11:42;78270.38;;;-147.20;51.83
55038;BME280;40937;53.594;10.034;2022-07-29T03:14:09;78282.47;;;-147.20;51.95
55038;BME280;40937;53.594;10.034;2022-07-29T03:16:36;78284.50;;;-147.20;52.20
55038;BME280;40937;53.594;10.034;2022-07-29T03:19:04;78276.41;;;-147.20;51.85
55038;BME280;40937;53.594;10.034;2022-07-29T03:21:33;78278.44;;;-147.20;51.95
55038;BME280;40937;53.594;10.034;2022-07-29T03:24:00;78282.47;;;-147.20;52.02
55038;BME280;40937;53.594;10.034;2022-07-29T03:26:26;78288.53;;;-147.20;52.47
55038;BME280;40937;53.594;10.034;2022-07-29T03:28:54;78282.47;;;-147.20;52.25
55038;BME280;40937;53.594;10.034;2022-07-29T03:31:21;78288.53;;;-147.20;52.54
55038;BME280;40937;53.594;10.034;2022-07-29T03:33:47;78286.50;;;-147.20;52.51
55038;BME280;40937;53.594;10.034;2022-07-29T03:36:14;78284.50;;;-147.20;52.75
55038;BME280;40937;53.594;10.034;2022-07-29T03:38:42;78272.38;;;-147.20;52.34
55038;BME280;40937;53.594;10.034;2022-07-29T03:41:11;78268.34;;;-147.20;52.19
55038;BME280;40937;53.594;10.034;2022-07-29T03:43:40;78274.41;;;-147.20;52.46
55038;BME280;40937;53.594;10.034;2022-07-29T03:46:09;78280.47;;;-147.20;52.47
55038;BME280;40937;53.594;10.034;2022-07-29T03:48:38;78268.34;;;-147.20;52.38
55038;BME280;40937;53.594;10.034;2022-07-29T03:51:06;78286.50;;;-147.20;52.58
55038;BME280;40937;53.594;10.034;2022-07-29T03:53:33;78264.31;;;-147.20;52.25
55038;BME280;40937;53.594;10.034;2022-07-29T03:56:02;78264.31;;;-147.20;52.21
55038;BME280;40937;53.594;10.034;2022-07-29T03:58:30;78266.31;;;-147.20;52.20
55038;BME280;40937;53.594;10.034;2022-07-29T04:00:58;78268.34;;;-147.20;52.27
55038;BME280;40937;53.594;10.034;2022-07-29T04:03:25;78264.31;;;-147.20;52.05
55038;BME280;40937;53.594;10.034;2022-07-29T04:05:59;78270.38;;;-147.20;52.25
55038;BME280;40937;53.594;10.034;2022-07-29T04:08:26;78266.31;;;-147.20;52.23
55038;BME280;40937;53.594;10.034;2022-07-29T04:10:53;78262.28;;;-147.20;52.02
55038;BME280;40937;53.594;10.034;2022-07-29T04:13:21;78270.38;;;-147.20;52.47
55038;BME280;40937;53.594;10.034;2022-07-29T04:15:47;78260.25;;;-147.20;52.31
55038;BME280;40937;53.594;10.034;2022-07-29T04:18:14;78266.31;;;-147.20;52.27
55038;BME280;40937;53.594;10.034;2022-07-29T04:20:41;78266.31;;;-147.20;52.14
55038;BME280;40937;53.594;10.034;2022-07-29T04:23:07;78260.25;;;-147.20;52.24
55038;BME280;40937;53.594;10.034;2022-07-29T04:25:37;78268.34;;;-147.20;52.28
55038;BME280;40937;53.594;10.034;2022-07-29T04:28:04;78268.34;;;-147.20;52.37
55038;BME280;40937;53.594;10.034;2022-07-29T04:30:32;78260.25;;;-147.20;52.17
55038;BME280;40937;53.594;10.034;2022-07-29T04:33:00;78270.38;;;-147.20;52.44
55038;BME280;40937;53.594;10.034;2022-07-29T04:35:27;78262.28;;;-147.20;52.45
55038;BME280;40937;53.594;10.034;2022-07-29T04:37:54;78252.19;;;-147.20;52.29
55038;BME280;40937;53.594;10.034;2022-07-29T04:40:20;78248.16;;;-147.20;52.32
55038;BME280;40937;53.594;10.034;2022-07-29T04:42:47;78246.13;;;-147.20;52.08
55038;BME280;40937;53.594;10.034;2022-07-29T04:45:14;78260.25;;;-147.20;52.32
55038;BME280;40937;53.594;10.034;2022-07-29T04:47:42;78264.31;;;-147.20;52.53
55038;BME280;40937;53.594;10.034;2022-07-29T04:50:09;78252.19;;;-147.20;52.27
55038;BME280;40937;53.594;10.034;2022-07-29T04:52:36;78252.19;;;-147.20;52.53
55038;BME280;40937;53.594;10.034;2022-07-29T04:55:04;78254.22;;;-147.20;52.54
55038;BME280;40937;53.594;10.034;2022-07-29T04:57:31;78250.16;;;-147.20;52.35
55038;BME280;40937;53.594;10.034;2022-07-29T04:59:57;78252.19;;;-147.20;52.67
55038;BME280;40937;53.594;10.034;2022-07-29T05:02:24;78248.16;;;-147.20;52.67
55038;BME280;40937;53.594;10.034;2022-07-29T05:04:55;78242.09;;;-147.20;52.62
55038;BME280;40937;53.594;10.034;2022-07-29T05:07:22;78223.91;;;-147.20;53.07
55038;BME280;40937;53.594;10.034;2022-07-29T05:09:48;78221.91;;;-147.20;53.71
55038;BME280;40937;53.594;10.034;2022-07-29T05:12:15;78225.94;;;-147.20;53.26
55038;BME280;40937;53.594;10.034;2022-07-29T05:14:42;78209.78;;;-147.20;52.68
55038;BME280;40937;53.594;10.034;2022-07-29T05:17:08;78211.81;;;-147.20;52.83
55038;BME280;40937;53.594;10.034;2022-07-29T05:19:35;78185.56;;;-147.20;52.43
55038;BME280;40937;53.594;10.034;2022-07-29T05:22:03;78177.47;;;-147.20;51.64
55038;BME280;40937;53.594;10.034;2022-07-29T05:24:30;78187.56;;;-147.20;51.62
55038;BME280;40937;53.594;10.034;2022-07-29T05:26:56;78195.66;;;-147.20;51.69
55038;BME280;40937;53.594;10.034;2022-07-29T05:29:23;78181.53;;;-147.20;51.69
55038;BME280;40937;53.594;10.034;2022-07-29T05:31:49;78199.69;;;-147.20;51.89
55038;BME280;40937;53.594;10.034;2022-07-29T05:34:18;78199.69;;;-147.20;52.17
55038;BME280;40937;53.594;10.034;2022-07-29T05:36:44;78209.78;;;-147.20;52.47
55038;BME280;40937;53.594;10.034;2022-07-29T05:39:13;78211.81;;;-147.20;52.47
55038;BME280;40937;53.594;10.034;2022-07-29T05:41:40;78211.81;;;-147.20;52.28
55038;BME280;40937;53.594;10.034;2022-07-29T05:44:07;78195.66;;;-147.20;51.90
55038;BME280;40937;53.594;10.034;2022-07-29T05:46:33;78189.59;;;-147.20;52.08
55038;BME280;40937;53.594;10.034;2022-07-29T05:49:00;78187.56;;;-147.20;52.00
55038;BME280;40937;53.594;10.034;2022-07-29T05:51:28;78195.66;;;-147.20;52.01
55038;BME280;40937;53.594;10.034;2022-07-29T05:53:55;78189.59;;;-147.20;52.24
55038;BME280;40937;53.594;10.034;2022-07-29T05:56:23;78201.72;;;-147.20;52.36
55038;BME280;40937;53.594;10.034;2022-07-29T05:58:50;78193.63;;;-147.20;52.34
55038;BME280;40937;53.594;10.034;2022-07-29T06:01:16;78183.53;;;-147.20;52.11
55038;BME280;40937;53.594;10.034;2022-07-29T06:03:43;78181.53;;;-147.20;52.50
55038;BME280;40937;53.594;10.034;2022-07-29T06:06:09;78167.38;;;-147.20;52.47
55038;BME280;40937;53.594;10.034;2022-07-29T06:08:36;78165.38;;;-147.20;52.31
55038;BME280;40937;53.594;10.034;2022-07-29T06:11:04;78165.38;;;-147.20;52.55
55038;BME280;40937;53.594;10.034;2022-07-29T06:13:32;78157.28;;;-147.20;52.59
55038;BME280;40937;53.594;10.034;2022-07-29T06:15:59;78147.19;;;-147.20;52.31
55038;BME280;40937;53.594;10.034;2022-07-29T06:18:25;78147.19;;;-147.20;52.25
55038;BME280;40937;53.594;10.034;2022-07-29T06:20:52;78137.09;;;-147.20;52.20
55038;BME280;40937;53.594;10.034;2022-07-29T06:23:20;78122.97;;;-147.20;52.20
55038;BME280;40937;53.594;10.034;2022-07-29T06:25:47;78112.88;;;-147.20;52.27
55038;BME280;40937;53.594;10.034;2022-07-29T06:28:13;78120.94;;;-147.20;52.06
55038;BME280;40937;53.594;10.034;2022-07-29T06:30:42;78098.72;;;-147.20;52.06
55038;BME280;40937;53.594;10.034;2022-07-29T06:33:08;78094.69;;;-147.20;52.03
55038;BME280;40937;53.594;10.034;2022-07-29T06:35:35;78090.66;;;-147.20;52.00
55038;BME280;40937;53.594;10.034;2022-07-29T06:38:02;78080.56;;;-147.20;52.04
55038;BME280;40937;53.594;10.034;2022-07-29T06:40:29;78064.41;;;-147.20;51.40
55038;BME280;40937;53.594;10.034;2022-07-29T06:43:13;78060.38;;;-147.20;51.61
55038;BME280;40937;53.594;10.034;2022-07-29T06:45:41;78062.38;;;-147.20;51.82
55038;BME280;40937;53.594;10.034;2022-07-29T06:48:09;78040.19;;;-147.20;51.50
55038;BME280;40937;53.594;10.034;2022-07-29T06:50:35;78034.13;;;-147.20;51.47
55038;BME280;40937;53.594;10.034;2022-07-29T06:53:02;78022.00;;;-147.20;51.11
55038;BME280;40937;53.594;10.034;2022-07-29T06:55:29;78013.94;;;-147.20;50.81
55038;BME280;40937;53.594;10.034;2022-07-29T06:57:56;78030.09;;;-147.20;51.05
55038;BME280;40937;53.594;10.034;2022-07-29T07:00:22;78013.94;;;-147.20;51.29
55038;BME280;40937;53.594;10.034;2022-07-29T07:02:50;77999.78;;;-147.20;51.02
55038;BME280;40937;53.594;10.034;2022-07-29T07:05:17;77995.75;;;-147.20;50.74
55038;BME280;40937;53.594;10.034;2022-07-29T07:07:43;77991.72;;;-147.20;50.69
55038;BME280;40937;53.594;10.034;2022-07-29T07:10:10;77983.66;;;-147.20;50.57
55038;BME280;40937;53.594;10.034;2022-07-29T07:12:37;77971.53;;;-147.20;50.19
55038;BME280;40937;53.594;10.034;2022-07-29T07:15:04;77967.50;;;-147.20;50.24
55038;BME280;40937;53.594;10.034;2022-07-29T07:17:31;77971.53;;;-147.20;50.49
55038;BME280;40937;53.594;10.034;2022-07-29T07:19:59;77963.44;;;-147.20;50.37
55038;BME280;40937;53.594;10.034;2022-07-29T07:22:26;77957.41;;;-147.20;50.30
55038;BME280;40937;53.594;10.034;2022-07-29T07:24:52;77951.34;;;-147.20;50.13
55038;BME280;40937;53.594;10.034;2022-07-29T07:27:19;77941.25;;;-147.20;50.27
55038;BME280;40937;53.594;10.034;2022-07-29T07:29:46;77945.28;;;-147.20;50.49
55038;BME280;40937;53.594;10.034;2022-07-29T07:32:12;77935.19;;;-147.20;50.49
55038;BME280;40937;53.594;10.034;2022-07-29T07:34:41;77923.06;;;-147.20;50.19
55038;BME280;40937;53.594;10.034;2022-07-29T07:37:09;77923.06;;;-147.20;50.11
55038;BME280;40937;53.594;10.034;2022-07-29T07:39:36;77923.06;;;-147.20;49.59
55038;BME280;40937;53.594;10.034;2022-07-29T07:42:02;77912.97;;;-147.20;49.24
55038;BME280;40937;53.594;10.034;2022-07-29T07:44:29;77900.88;;;-147.20;48.95
55038;BME280;40937;53.594;10.034;2022-07-29T07:46:56;77902.88;;;-147.20;49.08
55038;BME280;40937;53.594;10.034;2022-07-29T07:49:22;77894.81;;;-147.20;49.16
55038;BME280;40937;53.594;10.034;2022-07-29T07:51:49;77884.72;;;-147.20;49.06
55038;BME280;40937;53.594;10.034;2022-07-29T07:54:19;77894.81;;;-147.20;49.14
55038;BME280;40937;53.594;10.034;2022-07-29T07:56:45;77892.78;;;-147.20;48.94
55038;BME280;40937;53.594;10.034;2022-07-29T07:59:14;77878.66;;;-147.20;48.75
55038;BME280;40937;53.594;10.034;2022-07-29T08:01:40;77880.66;;;-147.20;48.76
55038;BME280;40937;53.594;10.034;2022-07-29T08:04:07;77886.72;;;-147.20;48.96
55038;BME280;40937;53.594;10.034;2022-07-29T08:06:34;77880.66;;;-147.20;49.36
55038;BME280;40937;53.594;10.034;2022-07-29T08:09:01;77878.66;;;-147.20;49.18
55038;BME280;40937;53.594;10.034;2022-07-29T08:11:29;77870.56;;;-147.20;49.16
55038;BME280;40937;53.594;10.034;2022-07-29T08:13:56;77844.31;;;-147.20;48.00
55038;BME280;40937;53.594;10.034;2022-07-29T08:16:22;77832.22;;;-147.20;47.88
55038;BME280;40937;53.594;10.034;2022-07-29T08:18:51;77836.25;;;-147.20;47.78
55038;BME280;40937;53.594;10.034;2022-07-29T08:21:22;77834.22;;;-147.20;48.11
55038;BME280;40937;53.594;10.034;2022-07-29T08:23:50;77834.22;;;-147.20;48.43
55038;BME280;40937;53.594;10.034;2022-07-29T08:26:18;77822.13;;;-147.20;48.36
55038;BME280;40937;53.594;10.034;2022-07-29T08:28:47;77818.09;;;-147.20;48.25
55038;BME280;40937;53.594;10.034;2022-07-29T08:31:16;77801.94;;;-147.20;47.86
55038;BME280;40937;53.594;10.034;2022-07-29T08:33:43;77779.72;;;-147.20;46.86
55038;BME280;40937;53.594;10.034;2022-07-29T08:36:09;77773.66;;;-147.20;46.79
55038;BME280;40937;53.594;10.034;2022-07-29T08:38:38;77767.59;;;-147.20;46.78
55038;BME280;40937;53.594;10.034;2022-07-29T08:41:05;77765.59;;;-147.20;47.00
55038;BME280;40937;53.594;10.034;2022-07-29T08:43:31;77757.50;;;-147.20;47.03
55038;BME280;40937;53.594;10.034;2022-07-29T08:46:01;77757.50;;;-147.20;47.15
55038;BME280;40937;53.594;10.034;2022-07-29T08:48:29;77741.34;;;-147.20;46.73
55038;BME280;40937;53.594;10.034;2022-07-29T08:50:56;77717.13;;;-147.20;46.44
55038;BME280;40937;53.594;10.034;2022-07-29T08:53:26;77700.97;;;-147.20;46.02
55038;BME280;40937;53.594;10.034;2022-07-29T08:55:53;77696.94;;;-147.20;46.15
55038;BME280;40937;53.594;10.034;2022-07-29T08:58:21;77690.88;;;-147.20;46.04
55038;BME280;40937;53.594;10.034;2022-07-29T09:00:50;77684.84;;;-147.20;46.12
55038;BME280;40937;53.594;10.034;2022-07-29T09:03:20;77682.81;;;-147.20;46.53
55038;BME280;40937;53.594;10.034;2022-07-29T09:05:49;77682.81;;;-147.20;46.23
55038;BME280;40937;53.594;10.034;2022-07-29T09:08:16;77660.59;;;-147.20;45.62
55038;BME280;40937;53.594;10.034;2022-07-29T09:10:44;77642.44;;;-147.20;45.42
55038;BME280;40937;53.594;10.034;2022-07-29T09:13:11;77634.34;;;-147.20;45.07
55038;BME280;40937;53.594;10.034;2022-07-29T09:15:37;77634.34;;;-147.20;45.24
55038;BME280;40937;53.594;10.034;2022-07-29T09:18:04;77628.31;;;-147.20;45.03
55038;BME280;40937;53.594;10.034;2022-07-29T09:20:32;77600.03;;;-147.20;44.21
55038;BME280;40937;53.594;10.034;2022-07-29T09:23:13;77600.03;;;-147.20;43.48
55038;BME280;40937;53.594;10.034;2022-07-29T09:25:41;77585.91;;;-147.20;43.50
55038;BME280;40937;53.594;10.034;2022-07-29T09:28:08;77575.81;;;-147.20;43.30
55038;BME280;40937;53.594;10.034;2022-07-29T09:30:36;77563.69;;;-147.20;43.28
55038;BME280;40937;53.594;10.034;2022-07-29T09:33:15;77543.50;;;-147.20;43.05
55038;BME280;40937;53.594;10.034;2022-07-29T09:35:44;77533.41;;;-147.20;43.14
55038;BME280;40937;53.594;10.034;2022-07-29T09:38:11;77517.25;;;-147.20;42.46
55038;BME280;40937;53.594;10.034;2022-07-29T09:40:38;77521.31;;;-147.20;42.59
55038;BME280;40937;53.594;10.034;2022-07-29T09:43:10;77513.22;;;-147.20;42.09
55038;BME280;40937;53.594;10.034;2022-07-29T09:45:37;77511.22;;;-147.20;42.06
55038;BME280;40937;53.594;10.034;2022-07-29T09:48:13;77511.22;;;-147.20;42.14
55038;BME280;40937;53.594;10.034;2022-07-29T09:50:42;77507.16;;;-147.20;42.05
55038;BME280;40937;53.594;10.034;2022-07-29T09:53:10;77495.06;;;-147.20;40.82
55038;BME280;40937;53.594;10.034;2022-07-29T09:55:47;77486.97;;;-147.20;40.42
55038;BME280;40937;53.594;10.034;2022-07-29T09:58:15;77480.91;;;-147.20;40.52
55038;BME280;40937;53.594;10.034;2022-07-29T10:00:43;77486.97;;;-147.20;40.99
55038;BME280;40937;53.594;10.034;2022-07-29T10:03:10;77484.97;;;-147.20;41.06
55038;BME280;40937;53.594;10.034;2022-07-29T10:05:38;77486.97;;;-147.20;40.90
55038;BME280;40937;53.594;10.034;2022-07-29T10:08:05;77472.84;;;-147.20;40.43
55038;BME280;40937;53.594;10.034;2022-07-29T10:10:36;77472.84;;;-147.20;40.42
55038;BME280;40937;53.594;10.034;2022-07-29T10:13:04;77444.59;;;-147.20;39.79
55038;BME280;40937;53.594;10.034;2022-07-29T10:15:34;77446.59;;;-147.20;40.39
55038;BME280;40937;53.594;10.034;2022-07-29T10:18:03;77446.59;;;-147.20;40.52
55038;BME280;40937;53.594;10.034;2022-07-29T10:20:30;77446.59;;;-147.20;40.85
55038;BME280;40937;53.594;10.034;2022-07-29T10:22:56;77440.53;;;-147.20;40.70
55038;BME280;40937;53.594;10.034;2022-07-29T10:25:24;77428.44;;;-147.20;40.57
55038;BME280;40937;53.594;10.034;2022-07-29T10:27:53;77406.22;;;-147.20;39.65
55038;BME280;40937;53.594;10.034;2022-07-29T10:30:21;77404.22;;;-147.20;39.98
55038;BME280;40937;53.594;10.034;2022-07-29T10:33:04;77402.19;;;-147.20;39.97
55038;BME280;40937;53.594;10.034;2022-07-29T10:35:47;77388.06;;;-147.20;38.87
55038;BME280;40937;53.594;10.034;2022-07-29T10:38:30;77382.00;;;-147.20;38.45
55038;BME280;40937;53.594;10.034;2022-07-29T10:41:12;77377.97;;;-147.20;38.70
55038;BME280;40937;53.594;10.034;2022-07-29T10:44:00;77365.84;;;-147.20;37.99
55038;BME280;40937;53.594;10.034;2022-07-29T10:46:27;77367.88;;;-147.20;38.37
55038;BME280;40937;53.594;10.034;2022-07-29T10:49:11;77353.75;;;-147.20;38.21
55038;BME280;40937;53.594;10.034;2022-07-29T10:51:55;77359.78;;;-147.20;38.39
55038;BME280;40937;53.594;10.034;2022-07-29T10:54:39;77355.75;;;-147.20;39.00
55038;BME280;40937;53.594;10.034;2022-07-29T10:57:16;77351.72;;;-147.20;38.49
55038;BME280;40937;53.594;10.034;2022-07-29T10:59:45;77341.63;;;-147.20;38.21
55038;BME280;40937;53.594;10.034;2022-07-29T11:05:20;77339.59;;;-147.20;37.78
55038;BME280;40937;53.594;10.034;2022-07-29T11:08:17;77339.59;;;-147.20;37.58
55038;BME280;40937;53.594;10.034;2022-07-29T11:10:45;77327.50;;;-147.20;37.73
55038;BME280;40937;53.594;10.034;2022-07-29T11:13:12;77325.47;;;-147.20;37.86
55038;BME280;40937;53.594;10.034;2022-07-29T11:15:53;77321.44;;;-147.20;37.96
55038;BME280;40937;53.594;10.034;2022-07-29T11:18:20;77321.44;;;-147.20;37.91
55038;BME280;40937;53.594;10.034;2022-07-29T11:20:48;77313.38;;;-147.20;37.40
55038;BME280;40937;53.594;10.034;2022-07-29T11:23:25;77299.22;;;-147.20;37.28
55038;BME280;40937;53.594;10.034;2022-07-29T11:26:16;77289.13;;;-147.20;37.32
55038;BME280;40937;53.594;10.034;2022-07-29T11:28:56;77275.00;;;-147.20;37.30
55038;BME280;40937;53.594;10.034;2022-07-29T11:31:37;77248.75;;;-147.20;37.09
55038;BME280;40937;53.594;10.034;2022-07-29T11:34:20;77234.63;;;-147.20;36.94
55038;BME280;40937;53.594;10.034;2022-07-29T11:37:15;77234.63;;;-147.20;37.21
55038;BME280;40937;53.594;10.034;2022-07-29T11:39:43;77212.44;;;-147.20;36.75
55038;BME280;40937;53.594;10.034;2022-07-29T11:42:42;77202.34;;;-147.20;36.54
55038;BME280;40937;53.594;10.034;2022-07-29T11:45:13;77184.16;;;-147.20;35.71
55038;BME280;40937;53.594;10.034;2022-07-29T11:47:48;77178.13;;;-147.20;35.77
55038;BME280;40937;53.594;10.034;2022-07-29T11:50:16;77184.16;;;-147.20;35.64
55038;BME280;40937;53.594;10.034;2022-07-29T11:52:45;77178.13;;;-147.20;35.67
55038;BME280;40937;53.594;10.034;2022-07-29T11:55:14;77176.09;;;-147.20;35.76
55038;BME280;40937;53.594;10.034;2022-07-29T11:57:48;77170.03;;;-147.20;35.77
55038;BME280;40937;53.594;10.034;2022-07-29T12:00:27;77159.94;;;-147.20;35.59
55038;BME280;40937;53.594;10.034;2022-07-29T12:02:56;77153.88;;;-147.20;35.83
55038;BME280;40937;53.594;10.034;2022-07-29T12:05:31;77151.88;;;-147.20;36.12
55038;BME280;40937;53.594;10.034;2022-07-29T12:08:11;77149.84;;;-147.20;36.21
55038;BME280;40937;53.594;10.034;2022-07-29T12:10:38;77119.56;;;-147.20;35.56
55038;BME280;40937;53.594;10.034;2022-07-29T12:13:05;77097.38;;;-147.20;35.00
55038;BME280;40937;53.594;10.034;2022-07-29T12:15:32;77089.28;;;-147.20;34.91
55038;BME280;40937;53.594;10.034;2022-07-29T12:18:11;77083.22;;;-147.20;35.04
55038;BME280;40937;53.594;10.034;2022-07-29T12:20:38;77054.97;;;-147.20;35.08
55038;BME280;40937;53.594;10.034;2022-07-29T12:23:06;77032.78;;;-147.20;34.68
55038;BME280;40937;53.594;10.034;2022-07-29T12:25:34;77022.69;;;-147.20;34.83
55038;BME280;40937;53.594;10.034;2022-07-29T12:28:04;77002.50;;;-147.20;34.73
55038;BME280;40937;53.594;10.034;2022-07-29T12:30:37;76982.31;;;-147.20;34.27
55038;BME280;40937;53.594;10.034;2022-07-29T12:33:14;76978.28;;;-147.20;33.99
55038;BME280;40937;53.594;10.034;2022-07-29T12:35:42;76962.13;;;-147.20;33.48
55038;BME280;40937;53.594;10.034;2022-07-29T12:38:11;76950.00;;;-147.20;33.10
55038;BME280;40937;53.594;10.034;2022-07-29T12:40:38;76945.97;;;-147.20;33.22
55038;BME280;40937;53.594;10.034;2022-07-29T12:43:06;76943.94;;;-147.20;33.41
55038;BME280;40937;53.594;10.034;2022-07-29T12:45:34;76923.75;;;-147.20;32.89